Archival Weather

Chicago O'Hare International

Chicago, Illinois (KORD)

Report from: Wednesday, June 15, 2022 11:51 AM CDT
Current time: Wednesday, April 24, 2024 2:42 PM CDT

Current weather – Weather history – Daily summaries
Weather forecast

Temperature32.8°C (91.0°F)
Heat index36.5°C (97.7°F)
Dew point21.7°C (71.1°F)
Winds 12 kts (6.2 m/s, 13.8 mph) South-Southwest (210°)
Wind gusts 20 kts (10.3 m/s, 23 mph)
Visibility10 mi. (16.1 km)
Clouds Few clouds 4,700 ft. (1,433 m)
Ceiling: Broken clouds 25,000 ft. (7,620 m)
Altimeter29.88 in.Hg (1012 mB)
Relative humidity52 %
Density altitude2,450 ft. (747 m)
Sea-level pressure101.1 kPa (1011 mB, 29.86 in.Hg)
Remarks Automated weather observing station with precipitation discriminator
Flight conditions Visual Meteorological Conditions
Raw dataKORD 151651Z 21012G20KT 10SM FEW047 BKN250 33/22 A2988 RMK AO2 SLP111 T03280217
An error has occurred. This application may no longer respond until reloaded. Reload 🗙